createdAt,value
2019-01-20T00:00:35.807Z,-4.72
2019-01-20T00:03:07.800Z,-4.71
2019-01-20T00:05:39.945Z,-4.78
2019-01-20T00:08:12.030Z,-4.83
2019-01-20T00:10:44.013Z,-4.83
2019-01-20T00:13:16.011Z,-4.78
2019-01-20T00:15:48.101Z,-4.84
2019-01-20T00:18:20.096Z,-4.79
2019-01-20T00:20:52.138Z,-4.82
2019-01-20T00:23:24.132Z,-4.88
2019-01-20T00:25:56.160Z,-4.86
2019-01-20T00:28:28.178Z,-4.80
2019-01-20T00:31:00.199Z,-4.90
2019-01-20T00:33:32.195Z,-4.86
2019-01-20T00:36:04.213Z,-4.99
2019-01-20T00:38:36.181Z,-5.10
2019-01-20T00:41:08.201Z,-5.13
2019-01-20T00:43:40.204Z,-5.16
2019-01-20T00:46:12.203Z,-5.12
2019-01-20T00:48:44.210Z,-5.22
2019-01-20T00:51:16.215Z,-5.24
2019-01-20T00:53:48.187Z,-5.26
2019-01-20T00:56:20.171Z,-5.23
2019-01-20T00:58:52.195Z,-5.18
2019-01-20T01:01:24.169Z,-5.16
2019-01-20T01:03:56.193Z,-5.09
2019-01-20T01:06:28.182Z,-4.96
2019-01-20T01:09:00.198Z,-5.10
2019-01-20T01:11:32.210Z,-5.08
2019-01-20T01:14:04.195Z,-4.94
2019-01-20T01:16:36.157Z,-4.95
2019-01-20T01:19:08.158Z,-4.86
2019-01-20T01:21:40.144Z,-4.86
2019-01-20T01:24:12.111Z,-4.96
2019-01-20T01:26:44.111Z,-4.95
2019-01-20T01:29:16.129Z,-4.99
2019-01-20T01:31:48.094Z,-5.03
2019-01-20T01:34:20.062Z,-4.95
2019-01-20T01:36:52.051Z,-4.98
2019-01-20T01:39:24.039Z,-4.99
2019-01-20T01:41:56.052Z,-5.00
2019-01-20T01:44:28.052Z,-5.04
2019-01-20T01:47:00.044Z,-5.09
2019-01-20T01:49:32.047Z,-5.08
2019-01-20T01:52:04.527Z,-5.05
2019-01-20T01:54:36.549Z,-5.02
2019-01-20T01:57:08.568Z,-4.96
2019-01-20T01:59:40.585Z,-5.10
2019-01-20T02:02:12.566Z,-5.10
2019-01-20T02:04:44.627Z,-5.05
2019-01-20T02:07:16.614Z,-5.08
2019-01-20T02:09:48.602Z,-5.10
2019-01-20T02:12:20.569Z,-5.16
2019-01-20T02:14:52.821Z,-5.14
2019-01-20T02:17:24.773Z,-5.09
2019-01-20T02:19:56.770Z,-5.11
2019-01-20T02:22:28.749Z,-5.21
2019-01-20T02:25:00.720Z,-5.37
2019-01-20T02:27:32.725Z,-5.48
2019-01-20T02:30:08.046Z,-5.32
2019-01-20T02:32:40.077Z,-5.35
2019-01-20T02:35:12.097Z,-5.28
2019-01-20T02:37:44.060Z,-5.34
2019-01-20T02:40:16.154Z,-5.37
2019-01-20T02:42:48.138Z,-5.30
2019-01-20T02:45:20.110Z,-5.29
2019-01-20T02:47:52.090Z,-5.32
2019-01-20T02:50:24.064Z,-5.41
2019-01-20T02:52:56.047Z,-5.50
2019-01-20T02:55:28.034Z,-5.40
2019-01-20T02:58:01.959Z,-5.37
2019-01-20T03:00:33.899Z,-5.44
2019-01-20T03:03:05.898Z,-5.39
2019-01-20T03:05:37.877Z,-5.42
2019-01-20T03:08:09.858Z,-5.39
2019-01-20T03:10:41.891Z,-5.47
2019-01-20T03:13:13.868Z,-5.48
2019-01-20T03:15:45.819Z,-5.52
2019-01-20T03:18:17.824Z,-5.46
2019-01-20T03:20:49.797Z,-5.50
2019-01-20T03:23:21.781Z,-5.54
2019-01-20T03:25:53.753Z,-5.48
2019-01-20T03:28:25.762Z,-5.55
2019-01-20T03:30:57.728Z,-5.56
2019-01-20T03:33:29.726Z,-5.51
2019-01-20T03:36:01.700Z,-5.59
2019-01-20T03:38:33.699Z,-5.64
2019-01-20T03:41:05.680Z,-5.68
2019-01-20T03:43:37.668Z,-5.64
2019-01-20T03:46:09.632Z,-5.71
2019-01-20T03:48:41.639Z,-5.79
2019-01-20T03:51:13.636Z,-5.83
2019-01-20T03:53:45.596Z,-5.79
2019-01-20T03:56:17.591Z,-5.72
2019-01-20T03:58:49.613Z,-5.73
2019-01-20T04:01:21.581Z,-5.72
2019-01-20T04:03:53.559Z,-5.78
2019-01-20T04:06:25.509Z,-5.85
2019-01-20T04:08:57.508Z,-5.85
2019-01-20T04:11:29.468Z,-5.89
2019-01-20T04:14:01.444Z,-6.00
2019-01-20T04:16:33.393Z,-5.94
2019-01-20T04:19:05.375Z,-6.03
2019-01-20T04:21:37.344Z,-5.97
2019-01-20T04:24:09.367Z,-5.91
2019-01-20T04:26:41.318Z,-5.93
2019-01-20T04:29:13.353Z,-5.91
2019-01-20T04:31:45.333Z,-5.96
2019-01-20T04:34:17.325Z,-5.98
2019-01-20T04:36:49.315Z,-5.74
2019-01-20T04:39:21.300Z,-5.80
2019-01-20T04:41:53.292Z,-5.84
2019-01-20T04:44:25.259Z,-5.79
2019-01-20T04:46:57.244Z,-5.77
2019-01-20T04:49:29.229Z,-5.72
2019-01-20T04:52:01.208Z,-5.77
2019-01-20T04:54:33.174Z,-5.86
2019-01-20T04:57:05.152Z,-5.83
2019-01-20T04:59:37.101Z,-5.84
2019-01-20T05:02:10.396Z,-5.83
2019-01-20T05:04:42.362Z,-5.85
2019-01-20T05:07:14.367Z,-5.82
2019-01-20T05:09:46.414Z,-5.86
2019-01-20T05:12:18.497Z,-5.95
2019-01-20T05:14:50.477Z,-5.87
2019-01-20T05:17:22.470Z,-5.81
2019-01-20T05:19:54.419Z,-5.82
2019-01-20T05:22:26.407Z,-5.82
2019-01-20T05:24:58.382Z,-5.76
2019-01-20T05:27:30.362Z,-5.89
2019-01-20T05:30:02.902Z,-5.87
2019-01-20T05:32:34.925Z,-5.81
2019-01-20T05:35:07.617Z,-5.90
2019-01-20T05:37:39.609Z,-5.88
2019-01-20T05:40:12.771Z,-5.87
2019-01-20T05:42:46.351Z,-5.84
2019-01-20T05:45:20.683Z,-5.84
2019-01-20T05:47:52.706Z,-5.66
2019-01-20T05:50:24.732Z,-5.74
2019-01-20T05:52:56.696Z,-5.84
2019-01-20T05:55:28.675Z,-5.85
2019-01-20T05:58:00.687Z,-5.80
2019-01-20T06:00:33.148Z,-5.74
2019-01-20T06:03:05.145Z,-5.77
2019-01-20T06:05:37.115Z,-5.81
2019-01-20T06:08:09.101Z,-5.92
2019-01-20T06:10:41.119Z,-5.89
2019-01-20T06:13:13.091Z,-5.94
2019-01-20T06:15:45.087Z,-5.87
2019-01-20T06:18:17.076Z,-5.81
2019-01-20T06:20:49.041Z,-5.83
2019-01-20T06:23:21.031Z,-5.75
2019-01-20T06:25:52.979Z,-5.81
2019-01-20T06:28:24.959Z,-5.77
2019-01-20T06:30:56.973Z,-5.80
2019-01-20T06:33:28.953Z,-5.72
2019-01-20T06:36:00.933Z,-5.80
2019-01-20T06:38:32.914Z,-5.60
2019-01-20T06:41:04.937Z,-5.68
2019-01-20T06:43:36.944Z,-5.59
2019-01-20T06:46:08.915Z,-5.53
2019-01-20T06:48:40.915Z,-5.32
2019-01-20T06:51:12.901Z,-5.39
2019-01-20T06:53:44.910Z,-5.36
2019-01-20T06:56:16.878Z,-5.45
2019-01-20T06:58:48.875Z,-5.36
2019-01-20T07:01:20.853Z,-5.50
2019-01-20T07:03:53.343Z,-5.54
2019-01-20T07:06:25.343Z,-5.50
2019-01-20T07:08:57.311Z,-5.47
2019-01-20T07:11:29.314Z,-5.62
2019-01-20T07:14:01.297Z,-5.53
2019-01-20T07:16:33.312Z,-5.52
2019-01-20T07:19:05.260Z,-5.58
2019-01-20T07:21:37.232Z,-5.55
2019-01-20T07:24:09.202Z,-5.54
2019-01-20T07:26:41.163Z,-5.52
2019-01-20T07:29:13.132Z,-5.39
2019-01-20T07:31:45.375Z,-5.47
2019-01-20T07:34:17.405Z,-5.38
2019-01-20T07:36:49.402Z,-5.32
2019-01-20T07:39:21.384Z,-5.28
2019-01-20T07:41:53.386Z,-5.29
2019-01-20T07:44:25.405Z,-5.09
2019-01-20T07:46:57.387Z,-5.05
2019-01-20T07:49:29.391Z,-5.04
2019-01-20T07:52:01.420Z,-4.97
2019-01-20T07:54:33.403Z,-5.05
2019-01-20T07:57:06.032Z,-4.90
2019-01-20T07:59:37.997Z,-4.86
2019-01-20T08:02:10.018Z,-4.89
2019-01-20T08:04:42.065Z,-4.85
2019-01-20T08:07:14.145Z,-4.74
2019-01-20T08:09:46.176Z,-4.66
2019-01-20T08:12:23.481Z,-4.62
2019-01-20T08:14:52.072Z,-4.76
2019-01-20T08:17:24.084Z,-4.61
2019-01-20T08:19:56.091Z,-4.41
2019-01-20T08:22:28.104Z,-4.48
2019-01-20T08:25:01.251Z,-4.55
2019-01-20T08:27:33.255Z,-4.63
2019-01-20T08:30:08.544Z,-4.51
2019-01-20T08:32:40.596Z,-4.50
2019-01-20T08:35:13.021Z,-4.27
2019-01-20T08:37:45.133Z,-4.25
2019-01-20T08:40:42.492Z,-4.35
2019-01-20T08:43:14.478Z,-4.25
2019-01-20T08:46:24.287Z,-4.11
2019-01-20T08:48:56.353Z,-3.86
2019-01-20T08:51:29.168Z,-3.63
2019-01-20T08:54:02.992Z,-3.63
2019-01-20T08:56:34.978Z,-3.53
2019-01-20T08:59:06.977Z,-3.52
2019-01-20T09:01:39.041Z,-3.30
2019-01-20T09:04:11.043Z,-3.38
2019-01-20T09:06:43.079Z,-3.49
2019-01-20T09:09:15.086Z,-3.45
2019-01-20T09:11:48.771Z,-3.55
2019-01-20T09:14:20.746Z,-3.60
2019-01-20T09:16:52.770Z,-3.57
2019-01-20T09:19:24.822Z,-3.44
2019-01-20T09:21:56.827Z,-3.36
2019-01-20T09:24:28.903Z,-3.22
2019-01-20T09:27:00.931Z,-3.00
2019-01-20T09:29:32.948Z,-3.00
2019-01-20T09:32:04.999Z,-2.86
2019-01-20T09:34:37.059Z,-2.82
2019-01-20T09:37:09.113Z,-2.83
2019-01-20T09:39:41.152Z,-2.78
2019-01-20T09:42:13.189Z,-2.60
2019-01-20T09:44:45.189Z,-2.12
2019-01-20T09:47:17.177Z,-2.10
2019-01-20T09:49:49.241Z,-2.12
2019-01-20T09:52:21.267Z,-1.99
2019-01-20T09:54:53.362Z,-1.90
2019-01-20T09:57:25.421Z,-1.81
2019-01-20T09:59:57.533Z,-1.78
2019-01-20T10:02:29.594Z,-1.64
2019-01-20T10:05:01.577Z,-1.52
2019-01-20T10:07:33.610Z,-1.55
2019-01-20T10:10:07.176Z,-1.42
2019-01-20T10:12:58.666Z,-1.52
2019-01-20T10:15:30.659Z,-1.50
2019-01-20T10:18:02.702Z,-1.47
2019-01-20T10:20:34.695Z,-1.39
2019-01-20T10:23:06.725Z,-1.43
2019-01-20T10:25:38.792Z,-1.41
2019-01-20T10:28:13.395Z,-1.27
2019-01-20T10:30:45.454Z,-1.29
2019-01-20T10:33:17.501Z,-1.22
2019-01-20T10:35:53.867Z,-1.16
2019-01-20T10:38:25.940Z,-1.23
2019-01-20T10:40:57.973Z,-1.37
2019-01-20T10:43:30.072Z,-1.17
2019-01-20T10:46:02.116Z,-1.34
2019-01-20T10:48:34.140Z,-1.18
2019-01-20T10:51:06.166Z,-1.07
2019-01-20T10:53:38.353Z,-1.10
2019-01-20T10:56:10.335Z,-1.12
2019-01-20T10:58:42.415Z,-0.87
2019-01-20T11:01:14.478Z,-0.66
2019-01-20T11:03:46.557Z,-0.85
2019-01-20T11:06:18.700Z,-0.84
2019-01-20T11:08:51.082Z,-0.84
2019-01-20T11:11:23.113Z,-0.76
2019-01-20T11:13:55.180Z,-0.63
2019-01-20T11:16:27.204Z,-0.60
2019-01-20T11:18:59.250Z,-0.62
2019-01-20T11:21:31.298Z,-0.51
2019-01-20T11:24:03.414Z,-0.66
2019-01-20T11:26:35.684Z,-0.56
2019-01-20T11:29:07.667Z,-0.51
2019-01-20T11:31:39.689Z,-0.56
2019-01-20T11:34:11.688Z,-0.55
2019-01-20T11:36:43.740Z,-0.42
2019-01-20T11:39:15.744Z,-0.19
2019-01-20T11:41:47.777Z,-0.28
2019-01-20T11:44:19.784Z,-0.15
2019-01-20T11:46:51.824Z,-0.14
2019-01-20T11:49:23.886Z,-0.12
2019-01-20T11:51:55.929Z,-0.18
2019-01-20T11:54:27.970Z,-0.07
2019-01-20T11:56:59.976Z,0.06
2019-01-20T11:59:31.973Z,0.08
2019-01-20T12:02:04.387Z,0.22
2019-01-20T12:04:37.725Z,0.36
2019-01-20T12:07:09.767Z,0.42
2019-01-20T12:09:41.785Z,0.52
2019-01-20T12:12:13.847Z,0.47
2019-01-20T12:14:45.822Z,0.57
2019-01-20T12:17:17.825Z,0.57
2019-01-20T12:19:49.850Z,0.65
2019-01-20T12:22:21.908Z,0.71
2019-01-20T12:24:53.980Z,0.76
2019-01-20T12:27:26.096Z,0.66
2019-01-20T12:29:58.160Z,0.62
2019-01-20T12:32:30.254Z,0.50
2019-01-20T12:35:02.300Z,0.47
2019-01-20T12:37:34.360Z,0.38
2019-01-20T12:40:10.505Z,0.56
2019-01-20T12:42:42.548Z,0.70
2019-01-20T12:45:14.552Z,0.67
2019-01-20T12:47:46.580Z,0.64
2019-01-20T12:50:18.616Z,0.74
2019-01-20T12:52:51.361Z,0.79
2019-01-20T12:55:23.437Z,0.69
2019-01-20T12:57:55.546Z,0.67
2019-01-20T13:00:27.780Z,0.78
2019-01-20T13:02:59.800Z,0.81
2019-01-20T13:05:31.818Z,0.94
2019-01-20T13:08:04.386Z,1.11
2019-01-20T13:10:36.482Z,0.97
2019-01-20T13:13:08.514Z,0.78
2019-01-20T13:15:40.825Z,0.80
2019-01-20T13:18:12.879Z,0.74
2019-01-20T13:20:44.982Z,0.81
2019-01-20T13:23:17.017Z,0.86
2019-01-20T13:25:49.112Z,0.88
2019-01-20T13:28:21.168Z,0.88
2019-01-20T13:30:53.228Z,0.92
2019-01-20T13:33:25.306Z,0.97
2019-01-20T13:35:57.413Z,0.98
2019-01-20T13:38:29.459Z,0.86
2019-01-20T13:41:05.541Z,0.97
2019-01-20T13:43:37.583Z,1.17
2019-01-20T13:46:10.925Z,1.27
2019-01-20T13:48:43.037Z,1.25
2019-01-20T13:51:15.125Z,1.26
2019-01-20T13:53:47.198Z,1.37
2019-01-20T13:56:20.650Z,1.29
2019-01-20T13:58:52.682Z,1.45
2019-01-20T14:01:24.770Z,1.31
2019-01-20T14:03:56.925Z,1.31
2019-01-20T14:06:29.107Z,1.32
2019-01-20T14:09:01.347Z,1.49
2019-01-20T14:11:35.264Z,1.31
2019-01-20T14:14:07.302Z,1.17
2019-01-20T14:16:41.792Z,1.24
2019-01-20T14:19:13.907Z,1.25
2019-01-20T14:21:45.962Z,1.30
2019-01-20T14:24:17.980Z,1.34
2019-01-20T14:26:50.053Z,1.41
2019-01-20T14:29:22.083Z,1.57
2019-01-20T14:31:54.139Z,1.44
2019-01-20T14:34:26.204Z,1.63
2019-01-20T14:36:58.207Z,1.56
2019-01-20T14:39:30.222Z,1.50
2019-01-20T14:42:02.268Z,1.45
2019-01-20T14:44:34.258Z,1.41
2019-01-20T14:47:06.334Z,1.63
2019-01-20T14:49:38.372Z,1.54
2019-01-20T14:52:10.452Z,1.61
2019-01-20T14:54:42.483Z,1.51
2019-01-20T14:57:14.571Z,1.54
2019-01-20T14:59:46.611Z,1.61
2019-01-20T15:02:18.709Z,1.41
2019-01-20T15:04:50.786Z,1.26
2019-01-20T15:07:22.882Z,1.33
2019-01-20T15:09:54.981Z,1.39
2019-01-20T15:12:27.086Z,1.39
2019-01-20T15:14:59.158Z,1.48
2019-01-20T15:17:31.276Z,1.33
2019-01-20T15:20:04.966Z,1.28
2019-01-20T15:22:37.005Z,1.22
2019-01-20T15:25:10.111Z,1.26
2019-01-20T15:27:42.223Z,1.17
2019-01-20T15:30:17.832Z,1.13
2019-01-20T15:32:49.991Z,1.23
2019-01-20T15:35:22.287Z,1.10
2019-01-20T15:37:54.350Z,1.00
2019-01-20T15:40:26.387Z,1.00
2019-01-20T15:42:59.809Z,1.00
2019-01-20T15:45:31.891Z,0.98
2019-01-20T15:48:04.272Z,0.79
2019-01-20T15:50:36.305Z,0.83
2019-01-20T15:53:09.726Z,0.88
2019-01-20T15:55:41.806Z,0.83
2019-01-20T15:58:13.866Z,0.82
2019-01-20T16:00:45.930Z,0.75
2019-01-20T16:03:18.036Z,0.72
2019-01-20T16:05:50.096Z,0.74
2019-01-20T16:08:22.256Z,0.73
2019-01-20T16:10:54.368Z,0.83
2019-01-20T16:13:26.530Z,0.72
2019-01-20T16:15:58.573Z,0.66
2019-01-20T16:18:30.660Z,0.83
2019-01-20T16:21:03.271Z,0.80
2019-01-20T16:23:35.339Z,0.70
2019-01-20T16:26:07.405Z,0.78
2019-01-20T16:28:39.445Z,0.83
2019-01-20T16:31:11.520Z,0.83
2019-01-20T16:33:43.581Z,0.80
2019-01-20T16:36:15.665Z,0.74
2019-01-20T16:38:47.758Z,0.63
2019-01-20T16:41:20.309Z,0.60
2019-01-20T16:43:52.336Z,0.65
2019-01-20T16:46:24.511Z,0.75
2019-01-20T16:48:56.541Z,0.58
2019-01-20T16:51:28.668Z,0.55
2019-01-20T16:54:00.724Z,0.47
2019-01-20T16:56:32.850Z,0.41
2019-01-20T16:59:04.881Z,0.47
2019-01-20T17:01:37.141Z,0.59
2019-01-20T17:04:09.285Z,0.45
2019-01-20T17:06:41.312Z,0.61
2019-01-20T17:09:14.885Z,0.43
2019-01-20T17:11:47.266Z,0.50
2019-01-20T17:14:19.412Z,0.51
2019-01-20T17:16:51.556Z,0.45
2019-01-20T17:19:24.193Z,0.45
2019-01-20T17:21:56.218Z,0.52
2019-01-20T17:24:28.391Z,0.48
2019-01-20T17:27:00.437Z,0.48
2019-01-20T17:29:32.563Z,0.45
2019-01-20T17:32:04.765Z,0.43
2019-01-20T17:34:36.857Z,0.47
2019-01-20T17:37:08.914Z,0.43
2019-01-20T17:39:41.143Z,0.44
2019-01-20T17:42:13.274Z,0.47
2019-01-20T17:44:45.486Z,0.57
2019-01-20T17:47:17.537Z,0.65
2019-01-20T17:49:49.650Z,0.62
2019-01-20T17:52:21.821Z,0.61
2019-01-20T17:54:53.953Z,0.37
2019-01-20T17:57:26.051Z,0.33
2019-01-20T17:59:58.164Z,0.26
2019-01-20T18:02:30.309Z,0.26
2019-01-20T18:05:03.135Z,0.40
2019-01-20T18:07:35.191Z,0.39
2019-01-20T18:10:08.789Z,0.27
2019-01-20T18:12:40.911Z,0.36
2019-01-20T18:15:14.448Z,0.22
2019-01-20T18:17:46.492Z,0.14
2019-01-20T18:20:20.666Z,0.14
2019-01-20T18:22:52.745Z,0.11
2019-01-20T18:25:25.558Z,0.25
2019-01-20T18:27:57.568Z,0.04
2019-01-20T18:30:30.099Z,0.21
2019-01-20T18:33:02.168Z,0.06
2019-01-20T18:35:34.314Z,0.13
2019-01-20T18:38:06.376Z,0.04
2019-01-20T18:40:38.518Z,0.20
2019-01-20T18:43:10.558Z,0.11
2019-01-20T18:45:43.068Z,0.08
2019-01-20T18:48:15.173Z,-0.02
2019-01-20T18:50:47.414Z,0.08
2019-01-20T18:53:19.519Z,0.03
2019-01-20T18:55:51.622Z,0.02
2019-01-20T18:58:23.771Z,-0.02
2019-01-20T19:00:55.995Z,0.07
2019-01-20T19:03:28.148Z,0.12
2019-01-20T19:06:00.202Z,0.26
2019-01-20T19:08:32.335Z,0.15
2019-01-20T19:11:04.401Z,0.14
2019-01-20T19:13:36.589Z,0.13
2019-01-20T19:16:09.211Z,0.14
2019-01-20T19:18:41.511Z,0.12
2019-01-20T19:21:13.539Z,-0.02
2019-01-20T19:23:45.758Z,-0.03
2019-01-20T19:26:17.808Z,0.08
2019-01-20T19:28:50.001Z,0.08
2019-01-20T19:31:22.056Z,0.13
2019-01-20T19:33:54.188Z,0.11
2019-01-20T19:36:26.256Z,0.23
2019-01-20T19:38:58.360Z,0.20
2019-01-20T19:41:30.391Z,0.10
2019-01-20T19:44:02.601Z,0.07
2019-01-20T19:46:34.680Z,0.01
2019-01-20T19:49:06.882Z,0.04
2019-01-20T19:51:38.876Z,-0.05
2019-01-20T19:54:11.130Z,0.13
2019-01-20T19:56:43.181Z,0.13
2019-01-20T19:59:15.364Z,0.06
2019-01-20T20:01:47.511Z,0.03
2019-01-20T20:04:19.681Z,0.06
2019-01-20T20:06:51.727Z,0.06
2019-01-20T20:09:23.880Z,0.06
2019-01-20T20:11:55.992Z,0.08
2019-01-20T20:14:28.176Z,0.05
2019-01-20T20:17:00.304Z,0.01
2019-01-20T20:19:32.432Z,0.07
2019-01-20T20:22:04.478Z,-0.01
2019-01-20T20:24:36.602Z,-0.05
2019-01-20T20:27:08.706Z,0.09
2019-01-20T20:29:40.776Z,0.25
2019-01-20T20:32:12.852Z,0.14
2019-01-20T20:34:44.985Z,0.14
2019-01-20T20:37:17.085Z,0.14
2019-01-20T20:39:49.251Z,0.22
2019-01-20T20:42:21.314Z,0.18
2019-01-20T20:44:53.555Z,0.15
2019-01-20T20:47:25.773Z,0.16
2019-01-20T20:49:57.948Z,0.19
2019-01-20T20:52:30.104Z,0.32
2019-01-20T20:55:02.234Z,0.16
2019-01-20T20:57:34.394Z,0.09
2019-01-20T21:00:10.582Z,0.10
2019-01-20T21:02:42.887Z,0.15
2019-01-20T21:05:15.057Z,0.16
2019-01-20T21:07:47.214Z,0.15
2019-01-20T21:10:19.284Z,0.01
2019-01-20T21:12:51.407Z,-0.03
2019-01-20T21:15:23.441Z,0.14
2019-01-20T21:17:55.640Z,0.06
2019-01-20T21:20:27.704Z,-0.01
2019-01-20T21:22:59.870Z,-0.12
2019-01-20T21:25:31.893Z,0.02
2019-01-20T21:28:03.985Z,-0.01
2019-01-20T21:30:36.033Z,-0.03
2019-01-20T21:33:08.190Z,0.03
2019-01-20T21:35:40.267Z,0.09
2019-01-20T21:38:12.337Z,0.09
2019-01-20T21:40:44.417Z,0.07
2019-01-20T21:43:16.443Z,0.05
2019-01-20T21:45:48.522Z,0.03
2019-01-20T21:48:20.551Z,0.10
2019-01-20T21:50:52.587Z,0.17
2019-01-20T21:53:24.648Z,0.12
2019-01-20T21:55:56.727Z,0.12
2019-01-20T21:58:28.770Z,0.09
2019-01-20T22:01:00.806Z,0.07
2019-01-20T22:03:32.850Z,0.12
2019-01-20T22:06:04.897Z,0.09
2019-01-20T22:08:36.943Z,0.07
2019-01-20T22:11:08.938Z,0.25
2019-01-20T22:13:41.006Z,0.25
2019-01-20T22:16:13.006Z,0.18
2019-01-20T22:18:45.075Z,0.22
2019-01-20T22:21:17.067Z,0.27
2019-01-20T22:23:49.120Z,0.28
2019-01-20T22:26:21.159Z,0.25
2019-01-20T22:28:53.205Z,0.11
2019-01-20T22:31:25.246Z,0.06
2019-01-20T22:33:57.297Z,0.10
2019-01-20T22:36:29.289Z,0.19
2019-01-20T22:39:01.347Z,0.13
2019-01-20T22:41:33.379Z,0.14
2019-01-20T22:44:05.390Z,0.22
2019-01-20T22:46:37.441Z,0.25
2019-01-20T22:49:09.434Z,0.18
2019-01-20T22:51:41.466Z,0.19
2019-01-20T22:54:13.506Z,0.25
2019-01-20T22:56:45.518Z,0.25
2019-01-20T22:59:17.544Z,0.30
2019-01-20T23:01:49.634Z,0.28
2019-01-20T23:04:21.690Z,0.14
2019-01-20T23:06:53.696Z,0.04
2019-01-20T23:09:25.676Z,0.07
2019-01-20T23:12:17.145Z,0.08
2019-01-20T23:14:49.111Z,0.18
2019-01-20T23:17:21.159Z,0.27
2019-01-20T23:19:53.175Z,0.19
2019-01-20T23:22:25.192Z,0.09
2019-01-20T23:24:57.212Z,0.19
2019-01-20T23:27:29.189Z,0.07
2019-01-20T23:30:01.181Z,0.25
2019-01-20T23:32:33.232Z,0.29
2019-01-20T23:35:05.313Z,0.18
2019-01-20T23:37:37.371Z,0.08
2019-01-20T23:40:09.442Z,0.20
2019-01-20T23:42:41.451Z,0.23
2019-01-20T23:45:13.827Z,0.20
2019-01-20T23:47:45.921Z,0.16
2019-01-20T23:50:17.933Z,0.20
2019-01-20T23:52:50.075Z,0.17
2019-01-20T23:55:22.640Z,0.18
2019-01-20T23:57:54.645Z,0.25
